sensor_id;sensor_type;location;lat;lon;timestamp;pressure;altitude;pressure_sealevel;temperature;humidity
11487;BME280;10510;47.942;9.442;2023-05-22T00:01:24;94226.31;;;12.80;100.00
11487;BME280;10510;47.942;9.442;2023-05-22T00:03:29;94213.41;;;12.79;100.00
11487;BME280;10510;47.942;9.442;2023-05-22T00:05:30;94216.81;;;12.79;100.00
11487;BME280;10510;47.942;9.442;2023-05-22T00:07:30;94225.53;;;12.80;100.00
11487;BME280;10510;47.942;9.442;2023-05-22T00:09:30;94221.88;;;12.81;100.00
11487;BME280;10510;47.942;9.442;2023-05-22T00:11:30;94218.44;;;12.80;100.00
11487;BME280;10510;47.942;9.442;2023-05-22T00:13:31;94215.84;;;12.80;100.00
11487;BME280;10510;47.942;9.442;2023-05-22T00:15:32;94215.41;;;12.83;100.00
11487;BME280;10510;47.942;9.442;2023-05-22T00:17:32;94218.66;;;12.85;100.00
11487;BME280;10510;47.942;9.442;2023-05-22T00:19:33;94222.06;;;12.86;100.00
11487;BME280;10510;47.942;9.442;2023-05-22T00:21:34;94215.63;;;12.82;100.00
11487;BME280;10510;47.942;9.442;2023-05-22T00:23:36;94218.88;;;12.77;100.00
11487;BME280;10510;47.942;9.442;2023-05-22T00:25:37;94219.66;;;12.78;100.00
11487;BME280;10510;47.942;9.442;2023-05-22T00:27:37;94215.44;;;12.77;100.00
11487;BME280;10510;47.942;9.442;2023-05-22T00:29:37;94217.03;;;12.78;100.00
11487;BME280;10510;47.942;9.442;2023-05-22T00:31:38;94213.00;;;12.82;100.00
11487;BME280;10510;47.942;9.442;2023-05-22T00:33:38;94217.03;;;12.84;100.00
11487;BME280;10510;47.942;9.442;2023-05-22T00:35:38;94222.91;;;12.80;100.00
11487;BME280;10510;47.942;9.442;2023-05-22T00:37:38;94227.13;;;12.81;100.00
11487;BME280;10510;47.942;9.442;2023-05-22T00:39:39;94221.66;;;12.82;100.00
11487;BME280;10510;47.942;9.442;2023-05-22T00:41:39;94218.22;;;12.82;100.00
11487;BME280;10510;47.942;9.442;2023-05-22T00:43:39;94221.88;;;12.81;100.00
11487;BME280;10510;47.942;9.442;2023-05-22T00:45:40;94226.09;;;12.82;100.00
11487;BME280;10510;47.942;9.442;2023-05-22T00:47:40;94231.34;;;12.82;100.00
11487;BME280;10510;47.942;9.442;2023-05-22T00:49:41;94230.53;;;12.81;100.00
11487;BME280;10510;47.942;9.442;2023-05-22T00:51:42;94230.53;;;12.81;100.00
11487;BME280;10510;47.942;9.442;2023-05-22T00:53:44;94231.16;;;12.83;100.00
11487;BME280;10510;47.942;9.442;2023-05-22T00:55:45;94231.94;;;12.84;100.00
11487;BME280;10510;47.942;9.442;2023-05-22T00:57:45;94233.56;;;12.85;100.00
11487;BME280;10510;47.942;9.442;2023-05-22T00:59:47;94226.72;;;12.84;100.00
11487;BME280;10510;47.942;9.442;2023-05-22T01:01:48;94239.63;;;12.85;100.00
11487;BME280;10510;47.942;9.442;2023-05-22T01:03:49;94242.44;;;12.84;100.00
11487;BME280;10510;47.942;9.442;2023-05-22T01:05:49;94236.00;;;12.80;100.00
11487;BME280;10510;47.942;9.442;2023-05-22T01:07:49;94243.28;;;12.71;100.00
11487;BME280;10510;47.942;9.442;2023-05-22T01:09:50;94247.72;;;12.64;100.00
11487;BME280;10510;47.942;9.442;2023-05-22T01:12:24;94247.16;;;12.62;100.00
11487;BME280;10510;47.942;9.442;2023-05-22T01:14:46;94244.09;;;12.58;100.00
11487;BME280;10510;47.942;9.442;2023-05-22T01:17:05;94252.19;;;12.57;100.00
11487;BME280;10510;47.942;9.442;2023-05-22T01:21:57;94256.63;;;12.56;100.00
11487;BME280;10510;47.942;9.442;2023-05-22T01:24:23;94255.00;;;12.55;100.00
11487;BME280;10510;47.942;9.442;2023-05-22T01:29:09;94261.88;;;12.56;100.00
11487;BME280;10510;47.942;9.442;2023-05-22T01:31:18;94253.59;;;12.53;100.00
11487;BME280;10510;47.942;9.442;2023-05-22T01:33:20;94250.16;;;12.52;100.00
11487;BME280;10510;47.942;9.442;2023-05-22T01:35:21;94250.16;;;12.52;100.00
11487;BME280;10510;47.942;9.442;2023-05-22T01:37:23;94259.44;;;12.55;100.00
11487;BME280;10510;47.942;9.442;2023-05-22T01:39:24;94260.25;;;12.55;100.00
11487;BME280;10510;47.942;9.442;2023-05-22T01:41:24;94261.88;;;12.56;100.00
11487;BME280;10510;47.942;9.442;2023-05-22T01:43:26;94257.81;;;12.60;100.00
11487;BME280;10510;47.942;9.442;2023-05-22T01:45:27;94262.66;;;12.63;100.00
11487;BME280;10510;47.942;9.442;2023-05-22T01:47:27;94258.84;;;12.59;100.00
11487;BME280;10510;47.942;9.442;2023-05-22T01:49:27;94258.66;;;12.54;100.00
11487;BME280;10510;47.942;9.442;2023-05-22T01:51:51;94269.75;;;12.43;100.00
11487;BME280;10510;47.942;9.442;2023-05-22T01:54:05;94267.53;;;12.33;100.00
11487;BME280;10510;47.942;9.442;2023-05-22T01:56:11;94270.53;;;12.23;100.00
11487;BME280;10510;47.942;9.442;2023-05-22T01:58:35;94267.94;;;12.10;100.00
11487;BME280;10510;47.942;9.442;2023-05-22T02:00:38;94263.09;;;12.07;100.00
11487;BME280;10510;47.942;9.442;2023-05-22T02:02:48;94268.53;;;12.05;100.00
11487;BME280;10510;47.942;9.442;2023-05-22T02:04:52;94264.72;;;12.01;100.00
11487;BME280;10510;47.942;9.442;2023-05-22T02:06:56;94265.91;;;11.99;100.00
11487;BME280;10510;47.942;9.442;2023-05-22T02:08:59;94272.56;;;12.01;100.00
11487;BME280;10510;47.942;9.442;2023-05-22T02:11:00;94263.50;;;12.04;100.00
11487;BME280;10510;47.942;9.442;2023-05-22T02:13:02;94262.09;;;12.08;100.00
11487;BME280;10510;47.942;9.442;2023-05-22T02:15:04;94255.47;;;12.12;100.00
11487;BME280;10510;47.942;9.442;2023-05-22T02:17:05;94261.28;;;12.14;100.00
11487;BME280;10510;47.942;9.442;2023-05-22T02:19:06;94256.66;;;12.16;100.00
11487;BME280;10510;47.942;9.442;2023-05-22T02:21:07;94262.91;;;12.15;100.00
11487;BME280;10510;47.942;9.442;2023-05-22T02:23:07;94264.31;;;12.11;100.00
11487;BME280;10510;47.942;9.442;2023-05-22T02:25:08;94259.88;;;12.05;100.00
11487;BME280;10510;47.942;9.442;2023-05-22T02:27:13;94263.31;;;11.99;100.00
11487;BME280;10510;47.942;9.442;2023-05-22T02:29:13;94266.31;;;11.89;100.00
11487;BME280;10510;47.942;9.442;2023-05-22T02:31:14;94265.06;;;11.78;100.00
11487;BME280;10510;47.942;9.442;2023-05-22T02:33:15;94253.56;;;11.73;100.00
11487;BME280;10510;47.942;9.442;2023-05-22T02:35:17;94261.63;;;11.71;100.00
11487;BME280;10510;47.942;9.442;2023-05-22T02:37:17;94258.00;;;11.72;100.00
11487;BME280;10510;47.942;9.442;2023-05-22T02:39:17;94254.59;;;11.72;100.00
11487;BME280;10510;47.942;9.442;2023-05-22T02:41:18;94258.22;;;11.71;100.00
11487;BME280;10510;47.942;9.442;2023-05-22T02:43:18;94252.97;;;11.71;100.00
11487;BME280;10510;47.942;9.442;2023-05-22T02:45:18;94257.38;;;11.64;100.00
11487;BME280;10510;47.942;9.442;2023-05-22T02:47:19;94263.81;;;11.54;100.00
11487;BME280;10510;47.942;9.442;2023-05-22T02:49:19;94261.38;;;11.46;100.00
11487;BME280;10510;47.942;9.442;2023-05-22T02:51:19;94261.34;;;11.40;100.00
11487;BME280;10510;47.942;9.442;2023-05-22T02:53:20;94266.97;;;11.30;100.00
11487;BME280;10510;47.942;9.442;2023-05-22T02:55:20;94266.34;;;11.21;100.00
11487;BME280;10510;47.942;9.442;2023-05-22T02:57:21;94268.09;;;11.14;100.00
11487;BME280;10510;47.942;9.442;2023-05-22T02:59:22;94265.28;;;11.09;100.00
11487;BME280;10510;47.942;9.442;2023-05-22T03:01:22;94264.84;;;11.05;100.00
11487;BME280;10510;47.942;9.442;2023-05-22T03:03:22;94269.28;;;11.05;100.00
11487;BME280;10510;47.942;9.442;2023-05-22T03:05:23;94269.28;;;11.05;100.00
11487;BME280;10510;47.942;9.442;2023-05-22T03:07:24;94264.06;;;11.05;100.00
11487;BME280;10510;47.942;9.442;2023-05-22T03:09:25;94265.88;;;11.04;100.00
11487;BME280;10510;47.942;9.442;2023-05-22T03:11:25;94268.25;;;10.99;100.00
11487;BME280;10510;47.942;9.442;2023-05-22T03:13:26;94267.81;;;10.89;100.00
11487;BME280;10510;47.942;9.442;2023-05-22T03:15:26;94265.34;;;10.81;100.00
11487;BME280;10510;47.942;9.442;2023-05-22T03:17:26;94269.78;;;10.80;100.00
11487;BME280;10510;47.942;9.442;2023-05-22T03:19:26;94277.63;;;10.80;100.00
11487;BME280;10510;47.942;9.442;2023-05-22T03:21:27;94280.66;;;10.84;100.00
11487;BME280;10510;47.942;9.442;2023-05-22T03:23:27;94280.25;;;10.87;100.00
11487;BME280;10510;47.942;9.442;2023-05-22T03:25:27;94273.22;;;10.87;100.00
11487;BME280;10510;47.942;9.442;2023-05-22T03:27:27;94285.69;;;10.85;100.00
11487;BME280;10510;47.942;9.442;2023-05-22T03:29:28;94282.63;;;10.82;100.00
11487;BME280;10510;47.942;9.442;2023-05-22T03:31:29;94270.38;;;10.82;100.00
11487;BME280;10510;47.942;9.442;2023-05-22T03:33:30;94277.03;;;10.85;100.00
11487;BME280;10510;47.942;9.442;2023-05-22T03:35:30;94281.88;;;10.88;100.00
11487;BME280;10510;47.942;9.442;2023-05-22T03:37:31;94284.91;;;10.91;100.00
11487;BME280;10510;47.942;9.442;2023-05-22T03:39:31;94288.50;;;10.90;100.00
11487;BME280;10510;47.942;9.442;2023-05-22T03:41:31;94282.31;;;10.91;100.00
11487;BME280;10510;47.942;9.442;2023-05-22T03:43:32;94281.69;;;10.89;100.00
11487;BME280;10510;47.942;9.442;2023-05-22T03:45:32;94285.09;;;10.90;100.00
11487;BME280;10510;47.942;9.442;2023-05-22T03:47:32;94282.91;;;10.94;100.00
11487;BME280;10510;47.942;9.442;2023-05-22T03:49:33;94280.72;;;10.97;100.00
11487;BME280;10510;47.942;9.442;2023-05-22T03:51:33;94288.13;;;10.94;100.00
11487;BME280;10510;47.942;9.442;2023-05-22T03:53:33;94283.28;;;10.90;100.00
11487;BME280;10510;47.942;9.442;2023-05-22T03:55:34;94285.91;;;10.90;100.00
11487;BME280;10510;47.942;9.442;2023-05-22T03:57:34;94277.88;;;10.92;100.00
11487;BME280;10510;47.942;9.442;2023-05-22T03:59:34;94288.75;;;10.96;100.00
11487;BME280;10510;47.942;9.442;2023-05-22T04:01:34;94280.53;;;10.99;100.00
11487;BME280;10510;47.942;9.442;2023-05-22T04:03:38;94286.38;;;11.01;100.00
11487;BME280;10510;47.942;9.442;2023-05-22T04:05:38;94289.00;;;11.07;100.00
11487;BME280;10510;47.942;9.442;2023-05-22T04:07:38;94292.25;;;11.09;100.00
11487;BME280;10510;47.942;9.442;2023-05-22T04:09:39;94297.88;;;11.13;100.00
11487;BME280;10510;47.942;9.442;2023-05-22T04:11:40;94294.06;;;11.09;100.00
11487;BME280;10510;47.942;9.442;2023-05-22T04:13:41;94294.38;;;10.99;100.00
11487;BME280;10510;47.942;9.442;2023-05-22T04:15:42;94300.59;;;10.91;100.00
11487;BME280;10510;47.942;9.442;2023-05-22T04:17:44;94305.38;;;10.88;100.00
11487;BME280;10510;47.942;9.442;2023-05-22T04:19:46;94305.22;;;10.89;100.00
11487;BME280;10510;47.942;9.442;2023-05-22T04:21:47;94308.25;;;10.93;100.00
11487;BME280;10510;47.942;9.442;2023-05-22T04:23:47;94310.06;;;10.93;100.00
11487;BME280;10510;47.942;9.442;2023-05-22T04:25:48;94316.31;;;10.98;100.00
11487;BME280;10510;47.942;9.442;2023-05-22T04:27:49;94311.50;;;11.02;100.00
11487;BME280;10510;47.942;9.442;2023-05-22T04:29:49;94307.13;;;11.09;100.00
11487;BME280;10510;47.942;9.442;2023-05-22T04:31:50;94307.16;;;11.16;100.00
11487;BME280;10510;47.942;9.442;2023-05-22T04:33:53;94301.94;;;11.22;100.00
11487;BME280;10510;47.942;9.442;2023-05-22T04:35:54;94312.25;;;11.30;100.00
11487;BME280;10510;47.942;9.442;2023-05-22T04:37:56;94304.22;;;11.39;100.00
11487;BME280;10510;47.942;9.442;2023-05-22T04:39:57;94306.88;;;11.45;100.00
11487;BME280;10510;47.942;9.442;2023-05-22T04:42:02;94313.13;;;11.51;100.00
11487;BME280;10510;47.942;9.442;2023-05-22T04:44:07;94314.31;;;11.48;100.00
11487;BME280;10510;47.942;9.442;2023-05-22T04:46:07;94314.94;;;11.50;100.00
11487;BME280;10510;47.942;9.442;2023-05-22T04:48:08;94320.97;;;11.51;100.00
11487;BME280;10510;47.942;9.442;2023-05-22T04:50:08;94315.75;;;11.51;100.00
11487;BME280;10510;47.942;9.442;2023-05-22T04:52:09;94319.38;;;11.56;100.00
11487;BME280;10510;47.942;9.442;2023-05-22T04:54:10;94310.13;;;11.67;100.00
11487;BME280;10510;47.942;9.442;2023-05-22T04:56:10;94320.44;;;11.75;100.00
11487;BME280;10510;47.942;9.442;2023-05-22T04:58:11;94314.41;;;11.81;100.00
11487;BME280;10510;47.942;9.442;2023-05-22T05:00:11;94326.13;;;11.86;100.00
11487;BME280;10510;47.942;9.442;2023-05-22T05:02:13;94327.97;;;11.92;100.00
11487;BME280;10510;47.942;9.442;2023-05-22T05:04:13;94317.69;;;11.97;100.00
11487;BME280;10510;47.942;9.442;2023-05-22T05:06:14;94325.13;;;12.00;100.00
11487;BME280;10510;47.942;9.442;2023-05-22T05:08:16;94321.53;;;12.01;100.00
11487;BME280;10510;47.942;9.442;2023-05-22T05:10:16;94326.78;;;12.01;100.00
11487;BME280;10510;47.942;9.442;2023-05-22T05:12:17;94322.94;;;12.03;100.00
11487;BME280;10510;47.942;9.442;2023-05-22T05:14:17;94324.75;;;12.10;100.00
11487;BME280;10510;47.942;9.442;2023-05-22T05:16:18;94322.16;;;12.16;100.00
11487;BME280;10510;47.942;9.442;2023-05-22T05:18:18;94327.19;;;12.24;100.00
11487;BME280;10510;47.942;9.442;2023-05-22T05:20:19;94321.56;;;12.34;100.00
11487;BME280;10510;47.942;9.442;2023-05-22T05:22:22;94325.19;;;12.40;100.00
11487;BME280;10510;47.942;9.442;2023-05-22T05:24:23;94322.78;;;12.45;100.00
11487;BME280;10510;47.942;9.442;2023-05-22T05:26:23;94324.97;;;12.48;100.00
11487;BME280;10510;47.942;9.442;2023-05-22T05:28:23;94327.59;;;12.48;100.00
11487;BME280;10510;47.942;9.442;2023-05-22T05:30:23;94329.22;;;12.49;100.00
11487;BME280;10510;47.942;9.442;2023-05-22T05:32:24;94327.59;;;12.55;100.00
11487;BME280;10510;47.942;9.442;2023-05-22T05:34:24;94321.53;;;12.61;100.00
11487;BME280;10510;47.942;9.442;2023-05-22T05:36:24;94329.00;;;12.77;100.00
11487;BME280;10510;47.942;9.442;2023-05-22T05:38:25;94325.16;;;12.86;100.00
11487;BME280;10510;47.942;9.442;2023-05-22T05:40:25;94321.69;;;12.99;100.00
11487;BME280;10510;47.942;9.442;2023-05-22T05:42:25;94327.91;;;13.11;100.00
11487;BME280;10510;47.942;9.442;2023-05-22T05:44:25;94321.81;;;13.24;100.00
11487;BME280;10510;47.942;9.442;2023-05-22T05:46:26;94319.72;;;13.53;100.00
11487;BME280;10510;47.942;9.442;2023-05-22T05:48:26;94326.59;;;14.49;100.00
11487;BME280;10510;47.942;9.442;2023-05-22T05:50:26;94327.78;;;15.21;100.00
11487;BME280;10510;47.942;9.442;2023-05-22T05:52:26;94329.03;;;15.74;100.00
11487;BME280;10510;47.942;9.442;2023-05-22T05:54:31;94320.84;;;16.36;100.00
11487;BME280;10510;47.942;9.442;2023-05-22T05:56:31;94331.78;;;16.51;100.00
11487;BME280;10510;47.942;9.442;2023-05-22T05:58:32;94331.91;;;16.56;100.00
11487;BME280;10510;47.942;9.442;2023-05-22T06:00:32;94334.34;;;16.82;100.00
11487;BME280;10510;47.942;9.442;2023-05-22T06:02:32;94334.09;;;17.42;100.00
11487;BME280;10510;47.942;9.442;2023-05-22T06:04:33;94326.44;;;17.69;100.00
11487;BME280;10510;47.942;9.442;2023-05-22T06:06:33;94326.13;;;18.23;100.00
11487;BME280;10510;47.942;9.442;2023-05-22T06:08:35;94332.59;;;18.60;100.00
11487;BME280;10510;47.942;9.442;2023-05-22T06:10:35;94335.09;;;18.84;100.00
11487;BME280;10510;47.942;9.442;2023-05-22T06:12:36;94333.97;;;18.97;100.00
11487;BME280;10510;47.942;9.442;2023-05-22T06:14:38;94337.09;;;19.11;100.00
11487;BME280;10510;47.942;9.442;2023-05-22T06:16:39;94333.53;;;19.22;100.00
11487;BME280;10510;47.942;9.442;2023-05-22T06:18:39;94335.59;;;19.37;100.00
11487;BME280;10510;47.942;9.442;2023-05-22T06:20:39;94344.03;;;19.56;100.00
11487;BME280;10510;47.942;9.442;2023-05-22T06:22:40;94334.66;;;19.65;100.00
11487;BME280;10510;47.942;9.442;2023-05-22T06:24:40;94333.72;;;19.76;100.00
11487;BME280;10510;47.942;9.442;2023-05-22T06:26:40;94324.75;;;19.82;100.00
11487;BME280;10510;47.942;9.442;2023-05-22T06:28:41;94334.41;;;19.88;100.00
11487;BME280;10510;47.942;9.442;2023-05-22T06:30:41;94331.50;;;19.90;100.00
11487;BME280;10510;47.942;9.442;2023-05-22T06:32:41;94327.53;;;19.92;100.00
11487;BME280;10510;47.942;9.442;2023-05-22T06:34:46;94333.28;;;20.06;100.00
11487;BME280;10510;47.942;9.442;2023-05-22T06:36:46;94331.41;;;20.07;100.00
11487;BME280;10510;47.942;9.442;2023-05-22T06:38:49;94323.84;;;20.20;100.00
11487;BME280;10510;47.942;9.442;2023-05-22T06:40:50;94326.91;;;20.34;100.00
11487;BME280;10510;47.942;9.442;2023-05-22T06:42:51;94337.22;;;20.31;100.00
11487;BME280;10510;47.942;9.442;2023-05-22T06:44:52;94331.34;;;20.29;100.00
11487;BME280;10510;47.942;9.442;2023-05-22T06:46:52;94329.06;;;20.37;100.00
11487;BME280;10510;47.942;9.442;2023-05-22T06:48:52;94334.34;;;20.37;100.00
11487;BME280;10510;47.942;9.442;2023-05-22T06:50:53;94333.41;;;19.94;100.00
11487;BME280;10510;47.942;9.442;2023-05-22T06:52:53;94329.91;;;19.67;100.00
11487;BME280;10510;47.942;9.442;2023-05-22T06:54:54;94339.38;;;19.63;100.00
11487;BME280;10510;47.942;9.442;2023-05-22T06:56:55;94335.84;;;19.74;100.00
11487;BME280;10510;47.942;9.442;2023-05-22T06:58:56;94340.50;;;19.67;100.00
11487;BME280;10510;47.942;9.442;2023-05-22T07:00:57;94339.56;;;19.78;100.00
11487;BME280;10510;47.942;9.442;2023-05-22T07:02:58;94336.84;;;19.73;100.00
11487;BME280;10510;47.942;9.442;2023-05-22T07:04:58;94337.81;;;20.11;100.00
11487;BME280;10510;47.942;9.442;2023-05-22T07:06:58;94333.91;;;20.46;100.00
11487;BME280;10510;47.942;9.442;2023-05-22T07:08:59;94331.97;;;20.63;100.00
11487;BME280;10510;47.942;9.442;2023-05-22T07:10:59;94339.78;;;20.48;100.00
11487;BME280;10510;47.942;9.442;2023-05-22T07:13:00;94337.66;;;20.50;100.00
11487;BME280;10510;47.942;9.442;2023-05-22T07:15:01;94336.78;;;20.66;100.00
11487;BME280;10510;47.942;9.442;2023-05-22T07:17:01;94337.81;;;20.97;100.00
11487;BME280;10510;47.942;9.442;2023-05-22T07:19:02;94345.16;;;21.22;100.00
11487;BME280;10510;47.942;9.442;2023-05-22T07:21:02;94341.56;;;21.44;100.00
11487;BME280;10510;47.942;9.442;2023-05-22T07:23:02;94345.84;;;21.50;100.00
11487;BME280;10510;47.942;9.442;2023-05-22T07:25:03;94345.19;;;21.75;100.00
11487;BME280;10510;47.942;9.442;2023-05-22T07:27:04;94348.16;;;21.84;100.00
11487;BME280;10510;47.942;9.442;2023-05-22T07:29:04;94347.66;;;21.97;100.00
11487;BME280;10510;47.942;9.442;2023-05-22T07:31:04;94349.31;;;22.13;100.00
11487;BME280;10510;47.942;9.442;2023-05-22T07:33:05;94352.81;;;22.29;100.00
11487;BME280;10510;47.942;9.442;2023-05-22T07:35:06;94352.28;;;22.32;100.00
11487;BME280;10510;47.942;9.442;2023-05-22T07:37:10;94359.00;;;22.50;100.00
11487;BME280;10510;47.942;9.442;2023-05-22T07:39:10;94350.50;;;22.89;100.00
11487;BME280;10510;47.942;9.442;2023-05-22T07:41:10;94357.41;;;22.90;100.00
11487;BME280;10510;47.942;9.442;2023-05-22T07:43:10;94359.84;;;22.92;100.00
11487;BME280;10510;47.942;9.442;2023-05-22T07:45:11;94357.97;;;23.12;100.00
11487;BME280;10510;47.942;9.442;2023-05-22T07:47:11;94355.00;;;23.40;100.00
11487;BME280;10510;47.942;9.442;2023-05-22T07:49:11;94358.63;;;23.85;100.00
11487;BME280;10510;47.942;9.442;2023-05-22T07:51:15;94354.50;;;24.18;100.00
11487;BME280;10510;47.942;9.442;2023-05-22T07:53:15;94353.03;;;24.46;100.00
11487;BME280;10510;47.942;9.442;2023-05-22T07:55:16;94350.00;;;24.58;100.00
11487;BME280;10510;47.942;9.442;2023-05-22T07:57:16;94354.69;;;24.76;100.00
11487;BME280;10510;47.942;9.442;2023-05-22T07:59:16;94358.00;;;24.63;100.00
11487;BME280;10510;47.942;9.442;2023-05-22T08:01:18;94351.56;;;24.64;100.00
11487;BME280;10510;47.942;9.442;2023-05-22T08:03:18;94351.59;;;24.98;100.00
11487;BME280;10510;47.942;9.442;2023-05-22T08:05:19;94342.47;;;25.33;100.00
11487;BME280;10510;47.942;9.442;2023-05-22T08:07:19;94344.94;;;25.54;100.00
11487;BME280;10510;47.942;9.442;2023-05-22T08:09:19;94347.50;;;25.64;100.00
11487;BME280;10510;47.942;9.442;2023-05-22T08:11:20;94341.28;;;25.45;100.00
11487;BME280;10510;47.942;9.442;2023-05-22T08:13:21;94338.84;;;25.48;100.00
11487;BME280;10510;47.942;9.442;2023-05-22T08:15:21;94342.81;;;25.27;100.00
11487;BME280;10510;47.942;9.442;2023-05-22T08:17:21;94337.94;;;25.00;100.00
11487;BME280;10510;47.942;9.442;2023-05-22T08:19:21;94340.97;;;24.88;100.00
11487;BME280;10510;47.942;9.442;2023-05-22T08:21:22;94347.91;;;24.50;100.00
11487;BME280;10510;47.942;9.442;2023-05-22T08:23:22;94333.28;;;24.37;100.00
11487;BME280;10510;47.942;9.442;2023-05-22T08:25:22;94342.38;;;24.36;100.00
11487;BME280;10510;47.942;9.442;2023-05-22T08:27:22;94327.94;;;24.81;100.00
11487;BME280;10510;47.942;9.442;2023-05-22T08:29:23;94325.28;;;25.15;100.00
11487;BME280;10510;47.942;9.442;2023-05-22T08:31:23;94320.03;;;25.29;100.00
11487;BME280;10510;47.942;9.442;2023-05-22T08:33:23;94322.00;;;25.48;100.00
11487;BME280;10510;47.942;9.442;2023-05-22T08:35:24;94331.00;;;25.57;100.00
11487;BME280;10510;47.942;9.442;2023-05-22T08:37:24;94322.75;;;25.77;100.00
11487;BME280;10510;47.942;9.442;2023-05-22T08:39:25;94327.69;;;26.13;100.00
11487;BME280;10510;47.942;9.442;2023-05-22T08:41:25;94325.44;;;26.20;100.00
11487;BME280;10510;47.942;9.442;2023-05-22T08:43:26;94329.78;;;26.35;100.00
11487;BME280;10510;47.942;9.442;2023-05-22T08:45:27;94322.97;;;26.62;100.00
11487;BME280;10510;47.942;9.442;2023-05-22T08:47:30;94328.06;;;26.63;100.00
11487;BME280;10510;47.942;9.442;2023-05-22T08:49:32;94326.44;;;26.81;100.00
11487;BME280;10510;47.942;9.442;2023-05-22T08:51:32;94330.56;;;26.92;100.00
11487;BME280;10510;47.942;9.442;2023-05-22T08:53:37;94323.81;;;26.95;100.00
11487;BME280;10510;47.942;9.442;2023-05-22T08:55:39;94322.66;;;26.82;100.00
11487;BME280;10510;47.942;9.442;2023-05-22T08:57:41;94332.00;;;26.85;100.00
11487;BME280;10510;47.942;9.442;2023-05-22T08:59:42;94326.97;;;27.16;100.00
11487;BME280;10510;47.942;9.442;2023-05-22T09:01:42;94329.69;;;27.30;100.00
11487;BME280;10510;47.942;9.442;2023-05-22T09:03:45;94328.69;;;27.26;100.00
11487;BME280;10510;47.942;9.442;2023-05-22T09:05:48;94326.81;;;27.40;100.00
11487;BME280;10510;47.942;9.442;2023-05-22T09:07:49;94325.25;;;27.67;100.00
11487;BME280;10510;47.942;9.442;2023-05-22T09:09:49;94323.59;;;27.84;100.00
11487;BME280;10510;47.942;9.442;2023-05-22T09:11:49;94323.28;;;28.00;100.00
11487;BME280;10510;47.942;9.442;2023-05-22T09:13:50;94325.25;;;28.22;100.00
11487;BME280;10510;47.942;9.442;2023-05-22T09:15:51;94320.63;;;28.36;100.00
11487;BME280;10510;47.942;9.442;2023-05-22T09:17:52;94320.25;;;28.29;100.00
11487;BME280;10510;47.942;9.442;2023-05-22T09:19:52;94319.53;;;28.51;100.00
11487;BME280;10510;47.942;9.442;2023-05-22T09:22:00;94309.75;;;28.55;100.00
11487;BME280;10510;47.942;9.442;2023-05-22T09:24:01;94314.09;;;28.42;100.00
11487;BME280;10510;47.942;9.442;2023-05-22T09:26:02;94316.59;;;28.11;100.00
11487;BME280;10510;47.942;9.442;2023-05-22T09:28:03;94310.97;;;27.85;100.00
11487;BME280;10510;47.942;9.442;2023-05-22T09:30:03;94315.53;;;27.98;100.00
11487;BME280;10510;47.942;9.442;2023-05-22T09:32:12;94316.47;;;28.30;100.00
11487;BME280;10510;47.942;9.442;2023-05-22T09:34:12;94315.56;;;28.35;100.00
11487;BME280;10510;47.942;9.442;2023-05-22T09:36:16;94315.38;;;28.31;100.00
11487;BME280;10510;47.942;9.442;2023-05-22T09:38:17;94307.91;;;28.42;100.00
11487;BME280;10510;47.942;9.442;2023-05-22T09:40:17;94310.00;;;28.31;100.00
11487;BME280;10510;47.942;9.442;2023-05-22T09:42:17;94314.31;;;28.18;100.00
11487;BME280;10510;47.942;9.442;2023-05-22T09:44:18;94316.34;;;28.35;100.00
11487;BME280;10510;47.942;9.442;2023-05-22T09:46:18;94316.66;;;28.34;100.00
11487;BME280;10510;47.942;9.442;2023-05-22T09:48:18;94310.88;;;27.90;100.00
11487;BME280;10510;47.942;9.442;2023-05-22T09:50:19;94311.28;;;27.83;100.00
11487;BME280;10510;47.942;9.442;2023-05-22T09:52:20;94312.25;;;27.74;100.00
11487;BME280;10510;47.942;9.442;2023-05-22T09:54:24;94309.88;;;27.86;100.00
11487;BME280;10510;47.942;9.442;2023-05-22T09:56:26;94305.72;;;27.80;100.00
11487;BME280;10510;47.942;9.442;2023-05-22T09:58:29;94308.97;;;27.77;100.00
11487;BME280;10510;47.942;9.442;2023-05-22T10:00:32;94312.16;;;27.93;100.00
11487;BME280;10510;47.942;9.442;2023-05-22T10:02:34;94310.34;;;28.16;100.00
11487;BME280;10510;47.942;9.442;2023-05-22T10:04:35;94311.47;;;28.37;100.00
11487;BME280;10510;47.942;9.442;2023-05-22T10:06:37;94310.16;;;28.12;100.00
11487;BME280;10510;47.942;9.442;2023-05-22T10:08:42;94313.31;;;28.14;100.00
11487;BME280;10510;47.942;9.442;2023-05-22T10:10:46;94307.34;;;28.17;100.00
11487;BME280;10510;47.942;9.442;2023-05-22T10:13:07;94302.19;;;28.21;100.00
11487;BME280;10510;47.942;9.442;2023-05-22T10:15:09;94304.53;;;28.36;100.00
11487;BME280;10510;47.942;9.442;2023-05-22T10:17:10;94309.03;;;28.63;100.00
11487;BME280;10510;47.942;9.442;2023-05-22T10:19:11;94311.63;;;28.68;100.00
11487;BME280;10510;47.942;9.442;2023-05-22T10:21:12;94303.84;;;28.67;100.00
11487;BME280;10510;47.942;9.442;2023-05-22T10:23:13;94306.41;;;28.72;100.00
11487;BME280;10510;47.942;9.442;2023-05-22T10:25:16;94295.47;;;28.68;100.00
11487;BME280;10510;47.942;9.442;2023-05-22T10:27:20;94296.44;;;28.72;100.00
11487;BME280;10510;47.942;9.442;2023-05-22T10:29:24;94298.72;;;28.57;100.00
11487;BME280;10510;47.942;9.442;2023-05-22T10:31:46;94292.84;;;28.55;100.00
11487;BME280;10510;47.942;9.442;2023-05-22T10:33:53;94291.44;;;28.57;100.00
11487;BME280;10510;47.942;9.442;2023-05-22T10:36:02;94294.75;;;28.54;100.00
11487;BME280;10510;47.942;9.442;2023-05-22T10:38:08;94294.31;;;28.61;100.00
11487;BME280;10510;47.942;9.442;2023-05-22T10:40:12;94292.16;;;28.49;100.00
11487;BME280;10510;47.942;9.442;2023-05-22T10:42:14;94288.16;;;28.60;100.00